Time;durP1;ratioP1;P1;durP2;ratioP2;P2;SDS_P1;SDS_P2;PMS_P1;PMS_P2;Temp;Humidity;BMP_temperature;BMP_pressure;BME280_temperature;BME280_humidity;BME280_pressure;Samples;Min_cycle;Max_cycle;Signal;HPM_P1;HPM_P2
2022/10/18 00:00:00;;;;;;;;;;;12.30;99.90;;;;;;4853806;29;20048;-58
2022/10/18 00:02:30;;;;;;;8.77;4.55;;;12.30;99.90;;;;;;4851543;29;19957;-56
2022/10/18 00:04:56;;;;;;;;;;;12.30;99.90;;;;;;4852128;29;20073;-58
2022/10/18 00:07:23;;;;;;;16.50;5.30;;;12.30;99.90;;;;;;4850177;29;20484;-56
2022/10/18 00:09:50;;;;;;;10.10;5.45;;;12.30;99.90;;;;;;4853770;29;20069;-57
2022/10/18 00:12:16;;;;;;;;;;;12.20;99.90;;;;;;4856327;29;20048;-57
2022/10/18 00:14:43;;;;;;;5.55;3.55;;;12.20;99.90;;;;;;4855788;29;19928;-57
2022/10/18 00:17:10;;;;;;;6.35;4.22;;;12.20;99.90;;;;;;4861218;29;20049;-57
2022/10/18 00:19:37;;;;;;;9.32;4.60;;;12.20;99.90;;;;;;4855659;29;20045;-56
2022/10/18 00:22:04;;;;;;;9.10;4.10;;;12.20;99.90;;;;;;4852042;29;20044;-56
2022/10/18 00:24:30;;;;;;;;;;;12.10;99.90;;;;;;4852482;29;20041;-58
2022/10/18 00:26:57;;;;;;;8.30;4.93;;;12.10;99.90;;;;;;4846713;29;19991;-56
2022/10/18 00:29:24;;;;;;;8.50;4.05;;;12.10;99.90;;;;;;4850099;29;20149;-52
2022/10/18 00:31:50;;;;;;;8.65;4.15;;;12.10;99.90;;;;;;4856371;29;20049;-56
2022/10/18 00:34:17;;;;;;;;;;;12.10;99.90;;;;;;4856129;29;20037;-55
2022/10/18 00:36:44;;;;;;;13.80;5.28;;;12.10;99.90;;;;;;4857670;29;20395;-53
2022/10/18 00:39:17;;;;;;;;;;;12.10;99.90;;;;;;4864299;29;20079;-56
2022/10/18 00:41:45;;;;;;;6.18;4.30;;;12.10;99.90;;;;;;4858172;29;19927;-55
2022/10/18 00:44:11;;;;;;;7.70;4.22;;;12.00;99.90;;;;;;4856037;29;20057;-54
2022/10/18 00:46:41;;;;;;;8.85;4.80;;;12.00;99.90;;;;;;4859390;29;20053;-58
2022/10/18 00:49:20;;;;;;;7.25;4.20;;;12.00;99.90;;;;;;4854774;29;20045;-59
2022/10/18 00:51:50;;;;;;;14.13;4.75;;;12.00;99.90;;;;;;4856956;29;20043;-55
2022/10/18 00:54:19;;;;;;;7.95;4.47;;;12.00;99.90;;;;;;4859538;29;20070;-54
2022/10/18 00:56:46;;;;;;;12.98;4.70;;;12.00;99.90;;;;;;4849966;29;20041;-54
2022/10/18 00:59:15;;;;;;;11.43;5.10;;;12.00;99.90;;;;;;4853099;29;20049;-55
2022/10/18 01:01:43;;;;;;;6.70;5.40;;;12.00;99.90;;;;;;4853226;29;20049;-56
2022/10/18 01:04:14;;;;;;;13.20;5.45;;;12.00;99.90;;;;;;4852619;29;20045;-58
2022/10/18 01:06:58;;;;;;;8.95;4.38;;;12.00;99.90;;;;;;4858192;29;20084;-52
2022/10/18 01:09:36;;;;;;;14.35;5.55;;;12.00;99.90;;;;;;4851983;29;20493;-54
2022/10/18 01:12:41;;;;;;;10.80;4.50;;;12.00;99.90;;;;;;4856338;29;20063;-56
2022/10/18 01:15:27;;;;;;;6.43;4.38;;;12.00;99.90;;;;;;4805255;29;20104;-56
2022/10/18 01:18:26;;;;;;;14.40;5.25;;;12.00;99.90;;;;;;4802288;29;20061;-59
2022/10/18 01:21:16;;;;;;;7.32;4.53;;;12.00;99.90;;;;;;4853023;29;20105;-55
2022/10/18 01:24:22;;;;;;;14.95;5.30;;;12.00;99.90;;;;;;4851153;29;20147;-58
2022/10/18 01:27:10;;;;;;;13.18;4.63;;;12.00;99.90;;;;;;4855326;29;20136;-59
2022/10/18 01:30:16;;;;;;;5.97;3.90;;;12.00;99.90;;;;;;4854658;29;20667;-56
2022/10/18 01:32:47;;;;;;;12.43;4.90;;;12.10;99.90;;;;;;4852046;29;20750;-58
2022/10/18 01:35:19;;;;;;;10.45;5.45;;;12.00;99.90;;;;;;4853329;29;20073;-56
2022/10/18 01:37:48;;;;;;;8.68;4.72;;;12.00;99.90;;;;;;4854897;29;20060;-54
2022/10/18 01:40:19;;;;;;;9.15;4.50;;;12.10;99.90;;;;;;4851814;29;20057;-55
2022/10/18 01:42:48;;;;;;;11.13;4.95;;;12.00;99.90;;;;;;4853339;29;20056;-55
2022/10/18 01:45:15;;;;;;;8.75;4.82;;;12.00;99.90;;;;;;4857624;29;20049;-57
2022/10/18 01:47:45;;;;;;;9.10;3.95;;;12.10;99.90;;;;;;4858668;29;20052;-55
2022/10/18 01:50:12;;;;;;;9.50;4.45;;;12.10;99.90;;;;;;4854538;29;20064;-54
2022/10/18 01:52:49;;;;;;;10.18;5.35;;;12.00;99.90;;;;;;4851770;29;20483;-56
2022/10/18 01:55:20;;;;;;;10.35;4.97;;;12.00;99.90;;;;;;4851933;29;20830;-57
2022/10/18 01:58:16;;;;;;;17.52;5.40;;;12.10;99.90;;;;;;4854448;29;20050;-57
2022/10/18 02:00:43;;;;;;;11.38;4.55;;;12.10;99.90;;;;;;4852535;29;20076;-57
2022/10/18 02:03:10;;;;;;;14.50;4.68;;;12.10;99.90;;;;;;4854475;29;20053;-59
2022/10/18 02:06:18;;;;;;;14.10;5.63;;;12.10;99.90;;;;;;4857311;29;20053;-54
2022/10/18 02:08:50;;;;;;;17.92;5.70;;;12.20;99.90;;;;;;4857597;29;20085;-58
2022/10/18 02:11:17;;;;;;;11.07;5.95;;;12.20;99.90;;;;;;4853599;29;20120;-56
2022/10/18 02:13:49;;;;;;;;;;;12.30;99.90;;;;;;4852758;29;20054;-58
2022/10/18 02:16:20;;;;;;;17.77;5.97;;;12.30;99.90;;;;;;4850403;29;19928;-58
2022/10/18 02:18:59;;;;;;;21.40;5.57;;;12.40;99.90;;;;;;4853555;29;20072;-59
2022/10/18 02:21:28;;;;;;;6.53;4.82;;;12.40;99.90;;;;;;4855699;29;20548;-57
2022/10/18 02:23:58;;;;;;;9.48;5.05;;;12.50;99.90;;;;;;4852319;29;20054;-57
2022/10/18 02:26:25;;;;;;;5.88;4.22;;;12.50;99.90;;;;;;4850246;29;20140;-58
2022/10/18 02:28:51;;;;;;;7.63;4.68;;;12.50;99.90;;;;;;4851912;29;20046;-56
2022/10/18 02:31:21;;;;;;;;;;;12.60;99.90;;;;;;4857219;29;20064;-56
2022/10/18 02:34:01;;;;;;;5.78;4.05;;;12.60;99.90;;;;;;4856120;29;20347;-54
2022/10/18 02:36:44;;;;;;;6.40;4.57;;;12.60;99.90;;;;;;4847994;29;20056;-57
2022/10/18 02:39:15;;;;;;;5.22;3.50;;;12.60;99.90;;;;;;4849783;29;20340;-56
2022/10/18 02:41:42;;;;;;;4.78;3.38;;;12.70;99.90;;;;;;4860274;29;20531;-58
2022/10/18 02:44:10;;;;;;;8.15;4.55;;;12.70;99.90;;;;;;4859999;29;20041;-57
2022/10/18 02:46:37;;;;;;;5.65;3.97;;;12.60;99.90;;;;;;4857291;29;20044;-58
2022/10/18 02:49:04;;;;;;;6.65;4.00;;;12.60;99.90;;;;;;4849294;29;20132;-58
2022/10/18 02:51:30;;;;;;;6.82;3.83;;;12.60;99.90;;;;;;4849958;29;20044;-55
2022/10/18 02:53:57;;;;;;;5.53;3.65;;;12.60;99.90;;;;;;4853099;29;20055;-58
2022/10/18 02:56:24;;;;;;;6.10;3.83;;;12.50;99.90;;;;;;4858133;29;20148;-57
2022/10/18 02:58:50;;;;;;;;;;;12.50;99.90;;;;;;4855651;29;20128;-55
2022/10/18 03:01:17;;;;;;;6.30;3.47;;;12.50;99.90;;;;;;4853969;29;20019;-57
2022/10/18 03:03:44;;;;;;;5.32;3.78;;;12.40;99.90;;;;;;4854189;29;20045;-58
2022/10/18 03:06:11;;;;;;;;;;;12.40;99.90;;;;;;4850013;29;20061;-59
2022/10/18 03:08:38;;;;;;;5.10;3.63;;;12.40;99.90;;;;;;4850608;29;19928;-57
2022/10/18 03:11:04;;;;;;;8.80;4.03;;;12.40;99.90;;;;;;4856395;29;20041;-56
2022/10/18 03:13:32;;;;;;;6.68;3.78;;;12.30;99.90;;;;;;4856527;29;20584;-56
2022/10/18 03:16:00;;;;;;;3.97;3.58;;;12.40;99.90;;;;;;4851772;29;20057;-58
2022/10/18 03:18:26;;;;;;;;;;;12.30;99.90;;;;;;4855820;29;20572;-58
2022/10/18 03:20:53;;;;;;;8.95;4.50;;;12.30;99.90;;;;;;4853904;29;19942;-55
2022/10/18 03:23:20;;;;;;;;;;;12.30;99.90;;;;;;4832486;29;20052;-57
2022/10/18 03:25:47;;;;;;;9.30;3.70;;;12.40;99.90;;;;;;4848650;29;19928;-56
2022/10/18 03:28:13;;;;;;;6.07;3.97;;;12.40;99.90;;;;;;4861572;29;20068;-57
2022/10/18 03:30:40;;;;;;;;;;;12.40;99.90;;;;;;4858301;29;20047;-55
2022/10/18 03:33:07;;;;;;;5.65;4.15;;;12.40;99.90;;;;;;4852794;29;19934;-57
2022/10/18 03:35:34;;;;;;;;;;;12.30;99.90;;;;;;4857809;29;20053;-56
2022/10/18 03:38:00;;;;;;;8.10;4.35;;;12.40;99.90;;;;;;4852347;29;19923;-56
2022/10/18 03:40:27;;;;;;;3.90;3.40;;;12.40;99.90;;;;;;4856397;29;20952;-57
2022/10/18 03:42:54;;;;;;;;;;;12.40;99.90;;;;;;4851876;29;20053;-57
2022/10/18 03:45:20;;;;;;;4.88;3.38;;;12.40;99.90;;;;;;4859834;29;19938;-56
2022/10/18 03:47:47;;;;;;;6.45;4.28;;;12.50;99.90;;;;;;4856077;29;20049;-57
2022/10/18 03:50:14;;;;;;;5.90;3.58;;;12.50;99.90;;;;;;4857008;29;20044;-55
2022/10/18 03:52:40;;;;;;;5.95;3.58;;;12.50;99.90;;;;;;4853312;29;20162;-55
2022/10/18 03:55:07;;;;;;;5.82;3.03;;;12.50;99.90;;;;;;4856093;29;20072;-56
2022/10/18 03:57:34;;;;;;;;;;;12.50;99.90;;;;;;4855874;29;20132;-57
2022/10/18 04:00:01;;;;;;;9.20;4.18;;;12.50;99.90;;;;;;4853965;29;19927;-57
2022/10/18 04:02:37;;;;;;;7.35;4.03;;;12.50;99.90;;;;;;4856819;29;20710;-55
2022/10/18 04:05:06;;;;;;;25.63;4.25;;;12.40;99.90;;;;;;4857043;29;20436;-56
2022/10/18 04:07:34;;;;;;;8.43;3.50;;;12.40;99.90;;;;;;4853032;29;20053;-58
2022/10/18 04:10:06;;;;;;;10.50;3.60;;;12.40;99.90;;;;;;4853204;29;20152;-57
2022/10/18 04:12:33;;;;;;;9.48;3.88;;;12.50;99.90;;;;;;4846476;29;20057;-55
2022/10/18 04:15:00;;;;;;;8.82;4.22;;;12.50;99.90;;;;;;4849721;29;20051;-55
2022/10/18 04:17:27;;;;;;;5.65;3.58;;;12.40;99.90;;;;;;4849841;29;20054;-55
2022/10/18 04:19:54;;;;;;;5.50;3.70;;;12.40;99.90;;;;;;4854892;29;20376;-55
2022/10/18 04:22:20;;;;;;;3.85;3.47;;;12.50;99.90;;;;;;4855543;29;20707;-57
2022/10/18 04:24:47;;;;;;;;;;;12.50;99.90;;;;;;4858626;29;20052;-53
2022/10/18 04:27:14;;;;;;;8.68;3.35;;;12.50;99.90;;;;;;4837892;29;20054;-53
2022/10/18 04:29:40;;;;;;;6.28;3.55;;;12.50;99.90;;;;;;4846960;29;20077;-58
2022/10/18 04:32:07;;;;;;;4.95;3.78;;;12.50;99.90;;;;;;4851873;29;20857;-53
2022/10/18 04:34:34;;;;;;;;;;;12.50;99.90;;;;;;4850063;29;20049;-56
2022/10/18 04:37:01;;;;;;;4.20;3.65;;;12.50;99.90;;;;;;4851116;29;19935;-57
2022/10/18 04:39:27;;;;;;;;;;;12.50;99.90;;;;;;4850665;29;20745;-58
2022/10/18 04:41:54;;;;;;;4.18;2.72;;;12.50;99.90;;;;;;4846780;29;20420;-56
2022/10/18 04:44:21;;;;;;;;;;;12.50;99.90;;;;;;4852239;29;20661;-57
2022/10/18 04:46:47;;;;;;;7.20;3.75;;;12.50;99.90;;;;;;4853783;29;19934;-58
2022/10/18 04:49:14;;;;;;;4.28;3.28;;;12.50;99.90;;;;;;4851039;29;20049;-55
2022/10/18 04:51:41;;;;;;;8.95;3.50;;;12.50;99.90;;;;;;4850487;29;20044;-56
2022/10/18 04:54:08;;;;;;;4.78;3.67;;;12.50;99.90;;;;;;4846442;29;20045;-57
2022/10/18 04:56:34;;;;;;;;;;;12.50;99.90;;;;;;4854980;29;20032;-56
2022/10/18 04:59:01;;;;;;;6.00;3.80;;;12.50;99.90;;;;;;4850497;29;19934;-56
2022/10/18 05:01:28;;;;;;;4.93;3.15;;;12.50;99.90;;;;;;4851281;29;20063;-56
2022/10/18 05:03:55;;;;;;;4.07;3.05;;;12.50;99.90;;;;;;4852565;29;20044;-56
2022/10/18 05:06:22;;;;;;;8.48;3.65;;;12.50;99.90;;;;;;4853718;29;20060;-56
2022/10/18 05:08:49;;;;;;;6.13;3.95;;;12.50;99.90;;;;;;4856906;29;20045;-56
2022/10/18 05:11:15;;;;;;;5.53;3.35;;;12.50;99.90;;;;;;4851321;29;20041;-56
2022/10/18 05:13:42;;;;;;;;;;;12.50;99.90;;;;;;4861430;29;20105;-55
2022/10/18 05:16:14;;;;;;;7.03;3.20;;;12.50;99.90;;;;;;4854376;29;19928;-57
2022/10/18 05:18:42;;;;;;;7.53;3.60;;;12.50;99.90;;;;;;4858558;29;20061;-55
2022/10/18 05:21:09;;;;;;;5.95;3.70;;;12.50;99.90;;;;;;4858288;29;20041;-58
2022/10/18 05:23:35;;;;;;;8.73;3.50;;;12.50;99.90;;;;;;4859871;29;20805;-54
2022/10/18 05:26:04;;;;;;;4.43;3.17;;;12.50;99.90;;;;;;4861292;29;20064;-57
2022/10/18 05:28:31;;;;;;;5.38;3.17;;;12.50;99.90;;;;;;4854316;29;20069;-56
2022/10/18 05:31:09;;;;;;;7.57;3.50;;;12.50;99.90;;;;;;4853156;29;20045;-58
2022/10/18 05:33:35;;;;;;;6.75;3.88;;;12.50;99.90;;;;;;4852693;29;20055;-58
2022/10/18 05:36:03;;;;;;;4.05;3.10;;;12.50;99.90;;;;;;4860768;29;20143;-58
2022/10/18 05:38:30;;;;;;;9.25;3.55;;;12.50;99.90;;;;;;4857856;29;20052;-55
2022/10/18 05:40:58;;;;;;;5.45;3.58;;;12.50;99.90;;;;;;4850169;29;20045;-58
2022/10/18 05:43:28;;;;;;;8.32;2.95;;;12.50;99.90;;;;;;4853366;29;20060;-57
2022/10/18 05:45:55;;;;;;;2.97;2.67;;;12.50;99.90;;;;;;4854834;29;20051;-59
2022/10/18 05:48:22;;;;;;;5.30;3.38;;;12.50;99.90;;;;;;4851168;29;20052;-57
2022/10/18 05:50:48;;;;;;;;;;;12.50;99.90;;;;;;4854664;29;20124;-55
2022/10/18 05:53:15;;;;;;;6.93;3.75;;;12.50;99.90;;;;;;4847536;29;19935;-54
2022/10/18 05:56:02;;;;;;;6.75;2.97;;;12.50;99.90;;;;;;4853127;29;20044;-56
2022/10/18 05:58:29;;;;;;;9.95;3.35;;;12.50;99.90;;;;;;4857373;29;20044;-58
2022/10/18 06:01:01;;;;;;;3.75;2.80;;;12.50;99.90;;;;;;4855706;29;20049;-56
2022/10/18 06:03:29;;;;;;;9.98;3.15;;;12.50;99.90;;;;;;4856567;29;20081;-57
2022/10/18 06:06:09;;;;;;;7.15;3.38;;;12.50;99.90;;;;;;4855774;29;20049;-57
2022/10/18 06:08:38;;;;;;;3.10;2.72;;;12.50;99.90;;;;;;4856554;29;20058;-55
2022/10/18 06:11:18;;;;;;;5.97;3.17;;;12.50;99.90;;;;;;4857278;29;20149;-54
2022/10/18 06:13:47;;;;;;;8.13;3.13;;;12.50;99.90;;;;;;4850342;29;20132;-56
2022/10/18 06:16:16;;;;;;;6.40;3.25;;;12.50;99.90;;;;;;4848842;29;20109;-53
2022/10/18 06:18:48;;;;;;;7.35;3.65;;;12.60;99.90;;;;;;4856961;29;20045;-56
2022/10/18 06:21:15;;;;;;;13.65;3.92;;;12.60;99.90;;;;;;4856043;29;20060;-55
2022/10/18 06:23:43;;;;;;;10.43;2.75;;;12.70;99.90;;;;;;4861290;29;20053;-56
2022/10/18 06:26:10;;;;;;;8.05;3.33;;;12.70;99.90;;;;;;4861354;29;20045;-57
2022/10/18 06:28:37;;;;;;;6.07;3.00;;;12.80;99.90;;;;;;4853704;29;20574;-55
2022/10/18 06:31:05;;;;;;;6.90;2.88;;;12.80;99.90;;;;;;4855937;29;20081;-57
2022/10/18 06:33:33;;;;;;;7.43;3.47;;;12.90;99.90;;;;;;4855657;29;20048;-52
2022/10/18 06:36:03;;;;;;;7.03;3.50;;;12.90;99.90;;;;;;4850666;29;20827;-55
2022/10/18 06:38:30;;;;;;;5.07;3.63;;;12.90;99.90;;;;;;4856687;29;20069;-55
2022/10/18 06:40:58;;;;;;;6.88;3.28;;;13.00;99.90;;;;;;4848451;29;20065;-56
2022/10/18 06:43:25;;;;;;;7.38;3.38;;;13.00;99.90;;;;;;4855700;29;20077;-57
2022/10/18 06:45:53;;;;;;;10.10;3.83;;;13.00;99.90;;;;;;4852464;29;20055;-55
2022/10/18 06:48:20;;;;;;;6.43;4.18;;;13.00;99.90;;;;;;4856021;29;20067;-55
2022/10/18 06:51:07;;;;;;;5.90;3.75;;;13.00;99.90;;;;;;4855197;29;20108;-52
2022/10/18 06:53:37;;;;;;;5.75;3.88;;;13.00;99.90;;;;;;4855597;29;20109;-57
2022/10/18 06:56:18;;;;;;;10.82;3.88;;;13.00;99.90;;;;;;4853592;29;20132;-54
2022/10/18 06:58:45;;;;;;;5.90;4.00;;;13.00;99.90;;;;;;4850346;29;20041;-56
2022/10/18 07:01:15;;;;;;;7.57;3.70;;;13.20;99.90;;;;;;4855941;29;20060;-56
2022/10/18 07:03:43;;;;;;;5.10;3.45;;;13.40;99.90;;;;;;4859482;29;20053;-57
2022/10/18 07:06:12;;;;;;;5.13;3.78;;;13.70;99.90;;;;;;4852266;29;20101;-57
2022/10/18 07:08:39;;;;;;;8.95;4.07;;;14.10;99.90;;;;;;4858099;29;20859;-53
2022/10/18 07:11:07;;;;;;;5.57;3.58;;;14.50;99.90;;;;;;4857947;29;20124;-53
2022/10/18 07:13:34;;;;;;;6.97;3.50;;;14.80;99.90;;;;;;4859406;29;20052;-55
2022/10/18 07:16:09;;;;;;;8.40;4.00;;;15.00;99.90;;;;;;4855440;29;20068;-55
2022/10/18 07:18:45;;;;;;;6.95;3.45;;;15.20;99.90;;;;;;4848345;29;20049;-55
2022/10/18 07:21:14;;;;;;;5.63;3.60;;;15.30;99.90;;;;;;4856878;29;20093;-54
2022/10/18 07:23:43;;;;;;;4.60;2.95;;;15.30;99.90;;;;;;4854997;29;20045;-54
2022/10/18 07:26:20;;;;;;;9.23;3.13;;;15.30;99.90;;;;;;4861524;29;20052;-54
2022/10/18 07:28:50;;;;;;;10.85;4.85;;;15.20;99.90;;;;;;4857371;29;20050;-57
2022/10/18 07:31:17;;;;;;;10.88;4.82;;;15.20;99.90;;;;;;4854770;29;20952;-53
2022/10/18 07:33:44;;;;;;;11.73;4.20;;;15.00;99.90;;;;;;4857364;29;20139;-56
2022/10/18 07:36:12;;;;;;;10.63;4.43;;;15.00;99.90;;;;;;4847864;29;20535;-57
2022/10/18 07:38:39;;;;;;;8.48;5.68;;;15.20;99.90;;;;;;4851790;29;20048;-54
2022/10/18 07:41:09;;;;;;;4.38;3.92;;;15.60;99.90;;;;;;4854575;29;20927;-54
2022/10/18 07:43:35;;;;;;;8.02;4.00;;;16.20;99.90;;;;;;4848280;29;20072;-53
2022/10/18 07:46:04;;;;;;;13.23;4.45;;;16.70;99.90;;;;;;4856402;29;20053;-56
2022/10/18 07:48:31;;;;;;;5.65;3.90;;;17.30;99.90;;;;;;4849976;29;20539;-57
2022/10/18 07:50:59;;;;;;;;;;;17.70;99.90;;;;;;4850961;29;20053;-55
2022/10/18 07:53:26;;;;;;;;;;;18.00;99.90;;;;;;4853344;29;19933;-56
2022/10/18 07:56:22;;;;;;;6.82;3.65;;;18.50;99.90;;;;;;4849704;29;19934;-55
2022/10/18 07:58:51;;;;;;;11.85;4.68;;;18.90;99.90;;;;;;4823940;29;20062;-56
2022/10/18 08:01:20;;;;;;;5.88;4.05;;;19.30;99.90;;;;;;4852748;29;20052;-57
2022/10/18 08:03:47;;;;;;;6.68;3.28;;;19.70;99.90;;;;;;4851944;29;20605;-57
2022/10/18 08:06:17;;;;;;;11.10;3.20;;;20.00;99.90;;;;;;4858268;29;20055;-59
2022/10/18 08:08:44;;;;;;;7.15;4.03;;;20.40;99.90;;;;;;4851919;29;20095;-58
2022/10/18 08:11:17;;;;;;;7.32;3.45;;;20.70;99.90;;;;;;4847238;29;20054;-60
2022/10/18 08:13:44;;;;;;;6.20;3.13;;;21.00;99.90;;;;;;4852366;29;20053;-57
2022/10/18 08:16:14;;;;;;;8.82;3.47;;;21.40;99.90;;;;;;4854217;29;20048;-53
2022/10/18 08:18:41;;;;;;;7.97;3.53;;;21.70;99.90;;;;;;4853709;29;20046;-57
2022/10/18 08:21:09;;;;;;;9.20;3.08;;;22.00;99.90;;;;;;4850061;29;20800;-55
2022/10/18 08:23:37;;;;;;;3.97;3.55;;;22.30;99.90;;;;;;4848009;29;20085;-55
2022/10/18 08:26:06;;;;;;;9.90;3.83;;;22.50;99.90;;;;;;4855112;29;20061;-57
2022/10/18 08:28:36;;;;;;;8.23;3.50;;;22.80;99.90;;;;;;4851949;29;20254;-57
2022/10/18 08:31:05;;;;;;;6.03;3.67;;;23.10;99.90;;;;;;4852152;29;20051;-57
2022/10/18 08:33:32;;;;;;;4.68;3.17;;;23.30;99.70;;;;;;4857840;29;20051;-57
2022/10/18 08:36:01;;;;;;;11.07;4.00;;;23.40;99.90;;;;;;4855367;29;20047;-56
2022/10/18 08:38:30;;;;;;;5.40;2.88;;;23.70;99.80;;;;;;4851890;29;20542;-55
2022/10/18 08:41:36;;;;;;;3.78;2.67;;;23.90;99.10;;;;;;4853606;29;20057;-55
2022/10/18 08:44:21;;;;;;;5.43;3.38;;;24.10;96.90;;;;;;4852463;29;20072;-55
2022/10/18 08:46:51;;;;;;;9.82;3.65;;;24.40;97.50;;;;;;4844161;29;20053;-57
2022/10/18 08:49:27;;;;;;;10.55;4.50;;;24.60;95.90;;;;;;4855495;29;20049;-54
2022/10/18 08:51:55;;;;;;;8.13;4.00;;;24.80;92.60;;;;;;4853352;29;20045;-54
2022/10/18 08:54:30;;;;;;;6.97;3.72;;;25.00;89.50;;;;;;4854031;29;20037;-56
2022/10/18 08:57:00;;;;;;;7.57;3.88;;;25.20;90.90;;;;;;4853385;29;20928;-56
2022/10/18 08:59:36;;;;;;;11.27;4.30;;;25.30;84.00;;;;;;4851249;29;20045;-57
2022/10/18 09:02:11;;;;;;;7.35;3.90;;;25.30;82.90;;;;;;4856479;29;20136;-58
2022/10/18 09:05:11;;;;;;;10.10;3.53;;;25.30;86.20;;;;;;4853870;29;20045;-56
2022/10/18 09:08:08;;;;;;;8.23;3.13;;;25.40;87.80;;;;;;4855747;29;20052;-57
2022/10/18 09:11:00;;;;;;;12.18;2.95;;;25.50;80.00;;;;;;4852777;29;20109;-53
2022/10/18 09:13:43;;;;;;;11.05;3.33;;;25.60;76.40;;;;;;4856448;29;20037;-56
2022/10/18 09:16:20;;;;;;;4.63;2.90;;;25.60;74.40;;;;;;4857694;29;20072;-53
2022/10/18 09:18:58;;;;;;;7.05;2.38;;;25.70;70.20;;;;;;4854939;29;20045;-53
2022/10/18 09:21:31;;;;;;;9.20;3.33;;;25.70;72.80;;;;;;4859970;29;20063;-55
2022/10/18 09:24:08;;;;;;;6.55;2.60;;;25.80;71.50;;;;;;4853439;29;20045;-52
2022/10/18 09:26:46;;;;;;;10.32;2.90;;;25.90;70.50;;;;;;4851358;29;20045;-53
2022/10/18 09:29:16;;;;;;;10.23;2.63;;;26.00;65.10;;;;;;4854944;29;20055;-53
2022/10/18 09:31:55;;;;;;;7.78;2.35;;;26.10;64.20;;;;;;4854683;29;20052;-55
2022/10/18 09:34:41;;;;;;;9.95;2.75;;;26.20;61.00;;;;;;4855340;29;20040;-56
2022/10/18 09:37:17;;;;;;;8.02;2.67;;;26.20;62.60;;;;;;4863284;29;20153;-57
2022/10/18 09:39:46;;;;;;;9.75;2.78;;;26.20;61.20;;;;;;4862408;29;20060;-56
2022/10/18 09:42:25;;;;;;;7.95;2.38;;;26.20;61.10;;;;;;4847891;29;20040;-57
2022/10/18 09:45:02;;;;;;;9.23;2.72;;;26.20;62.60;;;;;;4859469;29;20071;-54
2022/10/18 09:47:35;;;;;;;;;;;26.20;59.60;;;;;;4861668;29;20942;-56
2022/10/18 09:50:27;;;;;;;8.98;2.83;;;26.30;59.90;;;;;;4859310;29;19931;-58
2022/10/18 09:53:16;;;;;;;3.22;2.45;;;26.40;59.40;;;;;;4855288;29;20125;-57
2022/10/18 09:56:13;;;;;;;15.57;2.72;;;26.50;58.20;;;;;;4851001;29;20045;-53
2022/10/18 09:58:48;;;;;;;7.70;2.60;;;26.60;61.10;;;;;;4852035;29;20049;-55
2022/10/18 10:01:19;;;;;;;7.28;2.40;;;26.80;57.80;;;;;;4854186;29;20136;-56
2022/10/18 10:03:46;;;;;;;6.22;3.53;;;26.80;57.70;;;;;;4849574;29;20072;-56
2022/10/18 10:06:21;;;;;;;8.95;3.03;;;26.80;58.10;;;;;;4851688;29;20049;-56
2022/10/18 10:09:12;;;;;;;9.63;4.10;;;26.60;59.60;;;;;;4853098;29;20147;-54
2022/10/18 10:11:45;;;;;;;8.13;3.22;;;26.50;59.20;;;;;;4851833;29;20080;-51
2022/10/18 10:14:18;;;;;;;6.22;2.65;;;26.60;61.20;;;;;;4850782;29;20084;-56
2022/10/18 10:17:20;;;;;;;6.72;2.65;;;26.70;57.80;;;;;;4840775;29;20119;-56
2022/10/18 10:20:02;;;;;;;7.75;2.60;;;26.70;57.80;;;;;;4857153;29;20156;-55
2022/10/18 10:22:36;;;;;;;10.60;3.42;;;26.70;57.50;;;;;;4849794;29;20061;-55
2022/10/18 10:25:05;;;;;;;4.35;2.35;;;26.80;58.20;;;;;;4854823;29;20053;-55
2022/10/18 10:28:02;;;;;;;6.53;2.90;;;27.00;57.40;;;;;;4837475;29;20140;-56
2022/10/18 10:30:34;;;;;;;8.43;2.60;;;27.10;57.60;;;;;;4851329;29;20839;-56
2022/10/18 10:33:02;;;;;;;5.57;2.75;;;27.10;58.80;;;;;;4854641;29;20488;-55
2022/10/18 10:35:33;;;;;;;17.20;3.88;;;27.30;58.30;;;;;;4852721;29;20052;-55
2022/10/18 10:38:27;;;;;;;7.30;2.63;;;27.40;57.80;;;;;;4855721;29;20070;-57
2022/10/18 10:40:55;;;;;;;14.25;3.08;;;27.50;57.70;;;;;;4850994;29;20045;-57
2022/10/18 10:43:27;;;;;;;11.05;3.20;;;27.50;57.30;;;;;;4855954;29;20048;-54
2022/10/18 10:46:15;;;;;;;9.02;3.20;;;27.40;56.60;;;;;;4857072;29;20060;-56
2022/10/18 10:48:47;;;;;;;8.40;3.05;;;27.40;56.80;;;;;;4856587;29;20044;-53
2022/10/18 10:51:26;;;;;;;13.68;3.08;;;27.40;57.30;;;;;;4855032;29;20061;-56
2022/10/18 10:54:16;;;;;;;7.53;2.67;;;27.40;57.40;;;;;;4852235;29;20060;-53
2022/10/18 10:57:11;;;;;;;8.40;3.13;;;27.30;57.40;;;;;;4855635;29;20722;-57
2022/10/18 10:59:48;;;;;;;8.98;3.83;;;27.30;57.60;;;;;;4849049;29;20132;-54
2022/10/18 11:02:17;;;;;;;9.20;3.05;;;27.40;56.80;;;;;;4847358;29;20072;-57
2022/10/18 11:04:46;;;;;;;5.93;3.00;;;27.40;56.10;;;;;;4853633;29;20125;-56
2022/10/18 11:07:26;;;;;;;8.30;2.97;;;27.40;57.70;;;;;;4854911;29;20059;-54
2022/10/18 11:10:06;;;;;;;7.00;3.30;;;27.50;57.80;;;;;;4861316;29;20041;-55
2022/10/18 11:12:46;;;;;;;4.60;2.78;;;27.70;57.40;;;;;;4853571;29;20575;-53
2022/10/18 11:15:21;;;;;;;12.15;3.58;;;27.80;58.10;;;;;;4840161;29;20064;-55
2022/10/18 11:18:20;;;;;;;6.97;2.28;;;28.00;58.10;;;;;;4854694;29;20064;-56
2022/10/18 11:20:54;;;;;;;7.25;2.55;;;28.10;56.00;;;;;;4848971;29;20479;-57
2022/10/18 11:23:29;;;;;;;10.18;2.70;;;28.30;55.70;;;;;;4852963;29;20068;-57
2022/10/18 11:26:11;;;;;;;11.05;3.72;;;28.40;55.10;;;;;;4851738;29;20682;-57
2022/10/18 11:28:56;;;;;;;7.90;4.25;;;28.30;56.00;;;;;;4850813;29;20052;-55
2022/10/18 11:32:06;;;;;;;8.32;3.38;;;28.30;55.20;;;;;;4848465;29;20139;-57
2022/10/18 11:34:54;;;;;;;9.65;3.50;;;28.10;56.10;;;;;;4851326;29;20048;-54
2022/10/18 11:37:36;;;;;;;9.93;3.15;;;27.80;56.70;;;;;;4854352;29;20052;-57
2022/10/18 11:40:42;;;;;;;7.75;3.75;;;27.60;58.00;;;;;;4851272;29;20049;-56
2022/10/18 11:43:38;;;;;;;9.32;3.88;;;27.40;57.80;;;;;;4850087;29;20679;-57
2022/10/18 11:46:30;;;;;;;6.18;3.25;;;27.00;57.40;;;;;;4854310;29;20060;-56
2022/10/18 11:49:05;;;;;;;5.88;2.97;;;26.70;58.70;;;;;;4851294;29;20101;-57
2022/10/18 11:52:12;;;;;;;10.60;3.67;;;26.40;59.50;;;;;;4860576;29;20701;-55
2022/10/18 11:55:15;;;;;;;9.77;3.38;;;26.10;62.40;;;;;;4853989;29;20045;-56
2022/10/18 11:57:49;;;;;;;7.40;3.38;;;25.80;63.60;;;;;;4856646;29;20044;-53
2022/10/18 12:00:47;;;;;;;10.30;2.60;;;25.60;62.90;;;;;;4854042;29;20555;-55
2022/10/18 12:03:39;;;;;;;6.28;2.78;;;25.60;64.20;;;;;;4851112;29;20189;-57
2022/10/18 12:06:18;;;;;;;8.82;3.50;;;25.60;64.30;;;;;;4853683;29;20076;-54
2022/10/18 12:08:49;;;;;;;6.72;2.85;;;25.40;61.40;;;;;;4861696;29;20072;-55
2022/10/18 12:11:25;;;;;;;6.50;2.95;;;25.20;63.20;;;;;;4859313;29;20810;-58
2022/10/18 12:13:59;;;;;;;14.23;3.35;;;25.30;65.10;;;;;;4855879;29;20685;-55
2022/10/18 12:16:34;;;;;;;7.07;2.80;;;25.40;59.80;;;;;;4854766;29;20265;-56
2022/10/18 12:19:21;;;;;;;5.40;2.95;;;25.30;60.20;;;;;;4856770;29;20057;-55
2022/10/18 12:21:56;;;;;;;9.68;2.17;;;25.20;61.70;;;;;;4851017;29;20042;-56
2022/10/18 12:24:28;;;;;;;11.85;2.90;;;25.10;60.10;;;;;;4854206;29;20112;-56
2022/10/18 12:26:59;;;;;;;11.20;2.60;;;25.00;62.50;;;;;;4857061;29;20049;-56
2022/10/18 12:29:42;;;;;;;10.27;2.85;;;25.00;62.70;;;;;;4854899;29;20051;-57
2022/10/18 12:32:26;;;;;;;7.80;2.00;;;25.20;63.00;;;;;;4854818;29;20045;-54
2022/10/18 12:35:13;;;;;;;6.50;2.13;;;25.40;60.80;;;;;;4850330;29;20042;-57
2022/10/18 12:38:03;;;;;;;4.95;2.22;;;25.50;58.30;;;;;;4850501;29;20057;-56
2022/10/18 12:40:37;;;;;;;6.55;2.05;;;25.40;58.50;;;;;;4850897;29;20724;-56
2022/10/18 12:43:09;;;;;;;11.57;2.25;;;25.30;58.60;;;;;;4849743;29;20706;-53
2022/10/18 12:45:57;;;;;;;10.82;2.00;;;25.30;58.00;;;;;;4850396;29;20129;-57
2022/10/18 12:48:29;;;;;;;10.50;2.80;;;25.30;57.70;;;;;;4850294;29;20534;-56
2022/10/18 12:51:15;;;;;;;9.70;2.40;;;25.50;58.30;;;;;;4849817;29;20636;-57
2022/10/18 12:53:45;;;;;;;3.87;2.10;;;25.70;58.20;;;;;;4851443;29;20077;-56
2022/10/18 12:56:26;;;;;;;5.03;2.90;;;25.70;57.30;;;;;;4856690;29;20074;-60
2022/10/18 12:59:18;;;;;;;11.23;3.35;;;25.60;57.40;;;;;;4851138;29;20045;-58
2022/10/18 13:01:54;;;;;;;6.57;2.13;;;25.50;56.60;;;;;;4855540;29;20152;-57
2022/10/18 13:04:26;;;;;;;10.65;1.98;;;25.30;58.00;;;;;;4859206;29;20077;-56
2022/10/18 13:07:20;;;;;;;4.35;1.88;;;25.30;57.10;;;;;;4847745;29;20149;-58
2022/10/18 13:10:08;;;;;;;8.57;2.75;;;25.20;58.10;;;;;;4851609;29;20502;-55
2022/10/18 13:12:47;;;;;;;5.85;1.75;;;25.30;58.20;;;;;;4855214;29;20135;-56
2022/10/18 13:15:43;;;;;;;5.30;2.10;;;25.30;57.70;;;;;;4855228;29;20069;-56
2022/10/18 13:18:28;;;;;;;3.90;1.83;;;25.40;59.30;;;;;;4850479;29;20117;-57
2022/10/18 13:21:18;;;;;;;6.57;2.67;;;25.50;58.70;;;;;;4854608;29;20103;-56
2022/10/18 13:24:14;;;;;;;9.63;2.25;;;25.80;58.30;;;;;;4856523;29;20591;-56